sensor_id;sensor_type;location;lat;lon;timestamp;temperature;humidity
18624;DHT22;9441;51.420;7.036;2022-12-07T00:00:52;7.10;99.90
18624;DHT22;9441;51.420;7.036;2022-12-07T00:01:54;7.10;99.90
18624;DHT22;9441;51.420;7.036;2022-12-07T00:02:56;7.10;99.90
18624;DHT22;9441;51.420;7.036;2022-12-07T00:04:00;7.10;99.90
18624;DHT22;9441;51.420;7.036;2022-12-07T00:05:05;7.10;99.90
18624;DHT22;9441;51.420;7.036;2022-12-07T00:06:08;7.10;99.90
18624;DHT22;9441;51.420;7.036;2022-12-07T00:07:10;7.10;99.90
18624;DHT22;9441;51.420;7.036;2022-12-07T00:08:11;7.10;99.90
18624;DHT22;9441;51.420;7.036;2022-12-07T00:09:15;7.10;99.90
18624;DHT22;9441;51.420;7.036;2022-12-07T00:10:16;7.20;99.90
18624;DHT22;9441;51.420;7.036;2022-12-07T00:11:19;7.20;99.90
18624;DHT22;9441;51.420;7.036;2022-12-07T00:12:20;7.20;99.90
18624;DHT22;9441;51.420;7.036;2022-12-07T00:13:22;7.20;99.90
18624;DHT22;9441;51.420;7.036;2022-12-07T00:14:23;7.20;99.90
18624;DHT22;9441;51.420;7.036;2022-12-07T00:15:27;7.20;99.90
18624;DHT22;9441;51.420;7.036;2022-12-07T00:16:30;7.20;99.90
18624;DHT22;9441;51.420;7.036;2022-12-07T00:17:32;7.20;99.90
18624;DHT22;9441;51.420;7.036;2022-12-07T00:18:34;7.20;99.90
18624;DHT22;9441;51.420;7.036;2022-12-07T00:19:36;7.20;99.90
18624;DHT22;9441;51.420;7.036;2022-12-07T00:20:37;7.20;99.90
18624;DHT22;9441;51.420;7.036;2022-12-07T00:21:39;7.30;99.90
18624;DHT22;9441;51.420;7.036;2022-12-07T00:22:40;7.30;99.90
18624;DHT22;9441;51.420;7.036;2022-12-07T00:23:43;7.20;99.90
18624;DHT22;9441;51.420;7.036;2022-12-07T00:24:44;7.20;99.90
18624;DHT22;9441;51.420;7.036;2022-12-07T00:25:46;7.30;99.90
18624;DHT22;9441;51.420;7.036;2022-12-07T00:26:49;7.20;99.90
18624;DHT22;9441;51.420;7.036;2022-12-07T00:27:52;7.30;99.90
18624;DHT22;9441;51.420;7.036;2022-12-07T00:28:55;7.20;99.90
18624;DHT22;9441;51.420;7.036;2022-12-07T00:29:57;7.30;99.90
18624;DHT22;9441;51.420;7.036;2022-12-07T00:31:02;7.20;99.90
18624;DHT22;9441;51.420;7.036;2022-12-07T00:32:04;7.30;99.90
18624;DHT22;9441;51.420;7.036;2022-12-07T00:33:05;7.30;99.90
18624;DHT22;9441;51.420;7.036;2022-12-07T00:34:11;7.30;99.90
18624;DHT22;9441;51.420;7.036;2022-12-07T00:35:14;7.30;99.90
18624;DHT22;9441;51.420;7.036;2022-12-07T00:36:17;7.30;99.90
18624;DHT22;9441;51.420;7.036;2022-12-07T00:37:18;7.30;99.90
18624;DHT22;9441;51.420;7.036;2022-12-07T00:38:20;7.30;99.90
18624;DHT22;9441;51.420;7.036;2022-12-07T00:39:21;7.30;99.90
18624;DHT22;9441;51.420;7.036;2022-12-07T00:40:23;7.30;99.90
18624;DHT22;9441;51.420;7.036;2022-12-07T00:41:26;7.30;99.90
18624;DHT22;9441;51.420;7.036;2022-12-07T00:42:28;7.30;99.90
18624;DHT22;9441;51.420;7.036;2022-12-07T00:43:29;7.30;99.90
18624;DHT22;9441;51.420;7.036;2022-12-07T00:44:32;7.30;99.90
18624;DHT22;9441;51.420;7.036;2022-12-07T00:45:32;7.30;99.90
18624;DHT22;9441;51.420;7.036;2022-12-07T00:46:36;7.30;99.90
18624;DHT22;9441;51.420;7.036;2022-12-07T00:47:37;7.30;99.90
18624;DHT22;9441;51.420;7.036;2022-12-07T00:48:39;7.30;99.90
18624;DHT22;9441;51.420;7.036;2022-12-07T00:49:40;7.30;99.90
18624;DHT22;9441;51.420;7.036;2022-12-07T00:50:42;7.30;99.90
18624;DHT22;9441;51.420;7.036;2022-12-07T00:51:43;7.30;99.90
18624;DHT22;9441;51.420;7.036;2022-12-07T00:52:45;7.30;99.90
18624;DHT22;9441;51.420;7.036;2022-12-07T00:53:46;7.30;99.90
18624;DHT22;9441;51.420;7.036;2022-12-07T00:54:48;7.30;99.90
18624;DHT22;9441;51.420;7.036;2022-12-07T00:55:49;7.30;99.90
18624;DHT22;9441;51.420;7.036;2022-12-07T00:56:51;7.40;99.90
18624;DHT22;9441;51.420;7.036;2022-12-07T00:57:52;7.30;99.90
18624;DHT22;9441;51.420;7.036;2022-12-07T00:58:55;7.30;99.90
18624;DHT22;9441;51.420;7.036;2022-12-07T00:59:56;7.30;99.90
18624;DHT22;9441;51.420;7.036;2022-12-07T01:01:00;7.30;99.90
18624;DHT22;9441;51.420;7.036;2022-12-07T01:02:03;7.40;99.90
18624;DHT22;9441;51.420;7.036;2022-12-07T01:03:05;7.40;99.90
18624;DHT22;9441;51.420;7.036;2022-12-07T01:04:06;7.30;99.90
18624;DHT22;9441;51.420;7.036;2022-12-07T01:05:08;7.40;99.90
18624;DHT22;9441;51.420;7.036;2022-12-07T01:06:09;7.40;99.90
18624;DHT22;9441;51.420;7.036;2022-12-07T01:07:15;7.30;99.90
18624;DHT22;9441;51.420;7.036;2022-12-07T01:08:16;7.40;99.90
18624;DHT22;9441;51.420;7.036;2022-12-07T01:09:18;7.40;99.90
18624;DHT22;9441;51.420;7.036;2022-12-07T01:10:19;7.40;99.90
18624;DHT22;9441;51.420;7.036;2022-12-07T01:11:23;7.40;99.90
18624;DHT22;9441;51.420;7.036;2022-12-07T01:12:24;7.40;99.90
18624;DHT22;9441;51.420;7.036;2022-12-07T01:13:26;7.40;99.90
18624;DHT22;9441;51.420;7.036;2022-12-07T01:14:28;7.40;99.90
18624;DHT22;9441;51.420;7.036;2022-12-07T01:15:30;7.40;99.90
18624;DHT22;9441;51.420;7.036;2022-12-07T01:16:32;7.40;99.90
18624;DHT22;9441;51.420;7.036;2022-12-07T01:17:36;7.40;99.90
18624;DHT22;9441;51.420;7.036;2022-12-07T01:18:37;7.30;99.90
18624;DHT22;9441;51.420;7.036;2022-12-07T01:19:39;7.40;99.90
18624;DHT22;9441;51.420;7.036;2022-12-07T01:20:40;7.40;99.90
18624;DHT22;9441;51.420;7.036;2022-12-07T01:21:42;7.40;99.90
18624;DHT22;9441;51.420;7.036;2022-12-07T01:22:44;7.40;99.90
18624;DHT22;9441;51.420;7.036;2022-12-07T01:23:45;7.40;99.90
18624;DHT22;9441;51.420;7.036;2022-12-07T01:24:47;7.40;99.90
18624;DHT22;9441;51.420;7.036;2022-12-07T01:25:54;7.40;99.90
18624;DHT22;9441;51.420;7.036;2022-12-07T01:26:56;7.40;99.90
18624;DHT22;9441;51.420;7.036;2022-12-07T01:27:58;7.40;99.90
18624;DHT22;9441;51.420;7.036;2022-12-07T01:28:59;7.40;99.90
18624;DHT22;9441;51.420;7.036;2022-12-07T01:30:03;7.40;99.90
18624;DHT22;9441;51.420;7.036;2022-12-07T01:31:06;7.40;99.90
18624;DHT22;9441;51.420;7.036;2022-12-07T01:32:09;7.40;99.90
18624;DHT22;9441;51.420;7.036;2022-12-07T01:33:11;7.40;99.90
18624;DHT22;9441;51.420;7.036;2022-12-07T01:34:13;7.40;99.90
18624;DHT22;9441;51.420;7.036;2022-12-07T01:35:15;7.40;99.90
18624;DHT22;9441;51.420;7.036;2022-12-07T01:36:18;7.40;99.90
18624;DHT22;9441;51.420;7.036;2022-12-07T01:37:20;7.40;99.90
18624;DHT22;9441;51.420;7.036;2022-12-07T01:38:22;7.40;99.90
18624;DHT22;9441;51.420;7.036;2022-12-07T01:39:24;7.40;99.90
18624;DHT22;9441;51.420;7.036;2022-12-07T01:40:27;7.40;99.90
18624;DHT22;9441;51.420;7.036;2022-12-07T01:41:30;7.40;99.90
18624;DHT22;9441;51.420;7.036;2022-12-07T01:42:33;7.40;99.90
18624;DHT22;9441;51.420;7.036;2022-12-07T01:43:34;7.40;99.90
18624;DHT22;9441;51.420;7.036;2022-12-07T01:46:10;7.40;99.90
18624;DHT22;9441;51.420;7.036;2022-12-07T01:47:12;7.40;99.90
18624;DHT22;9441;51.420;7.036;2022-12-07T01:48:17;7.40;99.90
18624;DHT22;9441;51.420;7.036;2022-12-07T01:49:26;7.40;99.90
18624;DHT22;9441;51.420;7.036;2022-12-07T01:50:29;7.40;99.90
18624;DHT22;9441;51.420;7.036;2022-12-07T01:51:32;7.40;99.90
18624;DHT22;9441;51.420;7.036;2022-12-07T01:52:35;7.40;99.90
18624;DHT22;9441;51.420;7.036;2022-12-07T01:53:41;7.40;99.90
18624;DHT22;9441;51.420;7.036;2022-12-07T01:54:45;7.40;99.90
18624;DHT22;9441;51.420;7.036;2022-12-07T01:55:49;7.40;99.90
18624;DHT22;9441;51.420;7.036;2022-12-07T01:56:54;7.40;99.90
18624;DHT22;9441;51.420;7.036;2022-12-07T01:57:58;7.40;99.90
18624;DHT22;9441;51.420;7.036;2022-12-07T01:59:00;7.40;99.90
18624;DHT22;9441;51.420;7.036;2022-12-07T02:00:04;7.40;99.90
18624;DHT22;9441;51.420;7.036;2022-12-07T02:01:13;7.40;99.90
18624;DHT22;9441;51.420;7.036;2022-12-07T02:02:19;7.40;99.90
18624;DHT22;9441;51.420;7.036;2022-12-07T02:03:27;7.40;99.90
18624;DHT22;9441;51.420;7.036;2022-12-07T02:04:31;7.40;99.90
18624;DHT22;9441;51.420;7.036;2022-12-07T02:05:34;7.40;99.90
18624;DHT22;9441;51.420;7.036;2022-12-07T02:06:36;7.40;99.90
18624;DHT22;9441;51.420;7.036;2022-12-07T02:07:39;7.40;99.90
18624;DHT22;9441;51.420;7.036;2022-12-07T02:08:40;7.30;99.90
18624;DHT22;9441;51.420;7.036;2022-12-07T02:09:43;7.30;99.90
18624;DHT22;9441;51.420;7.036;2022-12-07T02:10:44;7.40;99.90
18624;DHT22;9441;51.420;7.036;2022-12-07T02:11:46;7.30;99.90
18624;DHT22;9441;51.420;7.036;2022-12-07T02:12:50;7.30;99.90
18624;DHT22;9441;51.420;7.036;2022-12-07T02:13:53;7.30;99.90
18624;DHT22;9441;51.420;7.036;2022-12-07T02:14:55;7.30;99.90
18624;DHT22;9441;51.420;7.036;2022-12-07T02:16:10;7.30;99.90
18624;DHT22;9441;51.420;7.036;2022-12-07T02:17:22;7.30;99.90
18624;DHT22;9441;51.420;7.036;2022-12-07T02:18:45;7.30;99.90
18624;DHT22;9441;51.420;7.036;2022-12-07T02:20:17;7.30;99.90
18624;DHT22;9441;51.420;7.036;2022-12-07T02:21:26;7.30;99.90
18624;DHT22;9441;51.420;7.036;2022-12-07T02:23:00;7.30;99.90
18624;DHT22;9441;51.420;7.036;2022-12-07T02:24:15;7.30;99.90
18624;DHT22;9441;51.420;7.036;2022-12-07T02:25:30;7.30;99.90
18624;DHT22;9441;51.420;7.036;2022-12-07T02:27:10;7.30;99.90
18624;DHT22;9441;51.420;7.036;2022-12-07T02:28:21;7.30;99.90
18624;DHT22;9441;51.420;7.036;2022-12-07T02:29:31;7.30;99.90
18624;DHT22;9441;51.420;7.036;2022-12-07T02:30:37;7.30;99.90
18624;DHT22;9441;51.420;7.036;2022-12-07T02:31:45;7.30;99.90
18624;DHT22;9441;51.420;7.036;2022-12-07T02:32:53;7.30;99.90
18624;DHT22;9441;51.420;7.036;2022-12-07T02:34:03;7.30;99.90
18624;DHT22;9441;51.420;7.036;2022-12-07T02:35:11;7.30;99.90
18624;DHT22;9441;51.420;7.036;2022-12-07T02:36:18;7.30;99.90
18624;DHT22;9441;51.420;7.036;2022-12-07T02:37:32;7.20;99.90
18624;DHT22;9441;51.420;7.036;2022-12-07T02:38:37;7.30;99.90
18624;DHT22;9441;51.420;7.036;2022-12-07T02:39:43;7.30;99.90
18624;DHT22;9441;51.420;7.036;2022-12-07T02:40:50;7.30;99.90
18624;DHT22;9441;51.420;7.036;2022-12-07T02:41:56;7.20;99.90
18624;DHT22;9441;51.420;7.036;2022-12-07T02:43:03;7.20;99.90
18624;DHT22;9441;51.420;7.036;2022-12-07T02:44:07;7.20;99.90
18624;DHT22;9441;51.420;7.036;2022-12-07T02:45:14;7.20;99.90
18624;DHT22;9441;51.420;7.036;2022-12-07T02:46:20;7.20;99.90
18624;DHT22;9441;51.420;7.036;2022-12-07T02:47:22;7.20;99.90
18624;DHT22;9441;51.420;7.036;2022-12-07T02:48:27;7.20;99.90
18624;DHT22;9441;51.420;7.036;2022-12-07T02:49:29;7.20;99.90
18624;DHT22;9441;51.420;7.036;2022-12-07T02:50:31;7.20;99.90
18624;DHT22;9441;51.420;7.036;2022-12-07T02:51:33;7.10;99.90
18624;DHT22;9441;51.420;7.036;2022-12-07T02:52:35;7.20;99.90
18624;DHT22;9441;51.420;7.036;2022-12-07T02:53:38;7.20;99.90
18624;DHT22;9441;51.420;7.036;2022-12-07T02:54:40;7.20;99.90
18624;DHT22;9441;51.420;7.036;2022-12-07T02:55:42;7.20;99.90
18624;DHT22;9441;51.420;7.036;2022-12-07T02:56:48;7.20;99.90
18624;DHT22;9441;51.420;7.036;2022-12-07T02:57:58;7.10;99.90
18624;DHT22;9441;51.420;7.036;2022-12-07T02:59:10;7.10;99.90
18624;DHT22;9441;51.420;7.036;2022-12-07T03:00:18;7.20;99.90
18624;DHT22;9441;51.420;7.036;2022-12-07T03:01:28;7.10;99.90
18624;DHT22;9441;51.420;7.036;2022-12-07T03:02:38;7.10;99.90
18624;DHT22;9441;51.420;7.036;2022-12-07T03:03:47;7.10;99.90
18624;DHT22;9441;51.420;7.036;2022-12-07T03:04:54;7.10;99.90
18624;DHT22;9441;51.420;7.036;2022-12-07T03:06:15;7.10;99.90
18624;DHT22;9441;51.420;7.036;2022-12-07T03:07:31;7.10;99.90
18624;DHT22;9441;51.420;7.036;2022-12-07T03:08:42;7.10;99.90
18624;DHT22;9441;51.420;7.036;2022-12-07T03:09:53;7.10;99.90
18624;DHT22;9441;51.420;7.036;2022-12-07T03:11:02;7.10;99.90
18624;DHT22;9441;51.420;7.036;2022-12-07T03:12:09;7.10;99.90
18624;DHT22;9441;51.420;7.036;2022-12-07T03:13:19;7.10;99.90
18624;DHT22;9441;51.420;7.036;2022-12-07T03:14:26;7.10;99.90
18624;DHT22;9441;51.420;7.036;2022-12-07T03:15:35;7.10;99.90
18624;DHT22;9441;51.420;7.036;2022-12-07T03:16:42;7.00;99.90
18624;DHT22;9441;51.420;7.036;2022-12-07T03:17:46;7.00;99.90
18624;DHT22;9441;51.420;7.036;2022-12-07T03:18:52;7.00;99.90
18624;DHT22;9441;51.420;7.036;2022-12-07T03:19:58;7.00;99.90
18624;DHT22;9441;51.420;7.036;2022-12-07T03:21:04;7.00;99.90
18624;DHT22;9441;51.420;7.036;2022-12-07T03:22:10;7.00;99.90
18624;DHT22;9441;51.420;7.036;2022-12-07T03:23:12;7.00;99.90
18624;DHT22;9441;51.420;7.036;2022-12-07T03:24:20;7.00;99.90
18624;DHT22;9441;51.420;7.036;2022-12-07T03:25:22;7.00;99.90
18624;DHT22;9441;51.420;7.036;2022-12-07T03:26:30;7.00;99.90
18624;DHT22;9441;51.420;7.036;2022-12-07T03:27:35;7.00;99.90
18624;DHT22;9441;51.420;7.036;2022-12-07T03:28:44;6.90;99.90
18624;DHT22;9441;51.420;7.036;2022-12-07T03:29:50;7.00;99.90
18624;DHT22;9441;51.420;7.036;2022-12-07T03:30:57;6.90;99.90
18624;DHT22;9441;51.420;7.036;2022-12-07T03:32:01;6.90;99.90
18624;DHT22;9441;51.420;7.036;2022-12-07T03:33:06;6.90;99.90
18624;DHT22;9441;51.420;7.036;2022-12-07T03:34:12;6.90;99.90
18624;DHT22;9441;51.420;7.036;2022-12-07T03:35:19;6.90;99.90
18624;DHT22;9441;51.420;7.036;2022-12-07T03:36:25;6.90;99.90
18624;DHT22;9441;51.420;7.036;2022-12-07T03:37:34;6.90;99.90
18624;DHT22;9441;51.420;7.036;2022-12-07T03:38:40;6.80;99.90
18624;DHT22;9441;51.420;7.036;2022-12-07T03:39:48;6.80;99.90
18624;DHT22;9441;51.420;7.036;2022-12-07T03:40:57;6.80;99.90
18624;DHT22;9441;51.420;7.036;2022-12-07T03:42:03;6.80;99.90
18624;DHT22;9441;51.420;7.036;2022-12-07T03:43:05;6.80;99.90
18624;DHT22;9441;51.420;7.036;2022-12-07T03:44:08;6.80;99.90
18624;DHT22;9441;51.420;7.036;2022-12-07T03:45:10;6.80;99.90
18624;DHT22;9441;51.420;7.036;2022-12-07T03:46:19;6.90;99.90
18624;DHT22;9441;51.420;7.036;2022-12-07T03:47:27;6.80;99.90
18624;DHT22;9441;51.420;7.036;2022-12-07T03:48:34;6.80;99.90
18624;DHT22;9441;51.420;7.036;2022-12-07T03:49:40;6.80;99.90
18624;DHT22;9441;51.420;7.036;2022-12-07T03:50:48;6.80;99.90
18624;DHT22;9441;51.420;7.036;2022-12-07T03:51:55;6.80;99.90
18624;DHT22;9441;51.420;7.036;2022-12-07T03:53:03;6.70;99.90
18624;DHT22;9441;51.420;7.036;2022-12-07T03:54:09;6.70;99.90
18624;DHT22;9441;51.420;7.036;2022-12-07T03:55:17;6.80;99.90
18624;DHT22;9441;51.420;7.036;2022-12-07T03:56:20;6.70;99.90
18624;DHT22;9441;51.420;7.036;2022-12-07T03:57:24;6.70;99.90
18624;DHT22;9441;51.420;7.036;2022-12-07T03:58:26;6.70;99.90
18624;DHT22;9441;51.420;7.036;2022-12-07T03:59:29;6.70;99.90
18624;DHT22;9441;51.420;7.036;2022-12-07T04:00:31;6.70;99.90
18624;DHT22;9441;51.420;7.036;2022-12-07T04:01:35;6.70;99.90
18624;DHT22;9441;51.420;7.036;2022-12-07T04:02:36;6.70;99.90
18624;DHT22;9441;51.420;7.036;2022-12-07T04:03:38;6.70;99.90
18624;DHT22;9441;51.420;7.036;2022-12-07T04:04:39;6.70;99.90
18624;DHT22;9441;51.420;7.036;2022-12-07T04:05:42;6.70;99.90
18624;DHT22;9441;51.420;7.036;2022-12-07T04:06:43;6.70;99.90
18624;DHT22;9441;51.420;7.036;2022-12-07T04:07:45;6.70;99.90
18624;DHT22;9441;51.420;7.036;2022-12-07T04:08:46;6.70;99.90
18624;DHT22;9441;51.420;7.036;2022-12-07T04:09:48;6.70;99.90
18624;DHT22;9441;51.420;7.036;2022-12-07T04:10:49;6.70;99.90
18624;DHT22;9441;51.420;7.036;2022-12-07T04:11:51;6.70;99.90
18624;DHT22;9441;51.420;7.036;2022-12-07T04:12:52;6.70;99.90
18624;DHT22;9441;51.420;7.036;2022-12-07T04:13:54;6.70;99.90
18624;DHT22;9441;51.420;7.036;2022-12-07T04:15:22;6.70;99.90
18624;DHT22;9441;51.420;7.036;2022-12-07T04:16:24;6.70;99.90
18624;DHT22;9441;51.420;7.036;2022-12-07T04:17:26;6.70;99.90
18624;DHT22;9441;51.420;7.036;2022-12-07T04:18:28;6.70;99.90
18624;DHT22;9441;51.420;7.036;2022-12-07T04:19:31;6.70;99.90
18624;DHT22;9441;51.420;7.036;2022-12-07T04:20:33;6.70;99.90
18624;DHT22;9441;51.420;7.036;2022-12-07T04:21:34;6.70;99.90
18624;DHT22;9441;51.420;7.036;2022-12-07T04:22:36;6.70;99.90
18624;DHT22;9441;51.420;7.036;2022-12-07T04:23:37;6.70;99.90
18624;DHT22;9441;51.420;7.036;2022-12-07T04:24:39;6.70;99.90
18624;DHT22;9441;51.420;7.036;2022-12-07T04:25:40;6.70;99.90
18624;DHT22;9441;51.420;7.036;2022-12-07T04:26:43;6.70;99.90
18624;DHT22;9441;51.420;7.036;2022-12-07T04:27:44;6.60;99.90
18624;DHT22;9441;51.420;7.036;2022-12-07T04:28:46;6.60;99.90
18624;DHT22;9441;51.420;7.036;2022-12-07T04:29:47;6.60;99.90
18624;DHT22;9441;51.420;7.036;2022-12-07T04:30:49;6.60;99.90
18624;DHT22;9441;51.420;7.036;2022-12-07T04:31:50;6.60;99.90
18624;DHT22;9441;51.420;7.036;2022-12-07T04:32:54;6.60;99.90
18624;DHT22;9441;51.420;7.036;2022-12-07T04:33:55;6.60;99.90
18624;DHT22;9441;51.420;7.036;2022-12-07T04:34:57;6.50;99.90
18624;DHT22;9441;51.420;7.036;2022-12-07T04:35:58;6.50;99.90
18624;DHT22;9441;51.420;7.036;2022-12-07T04:37:00;6.50;99.90
18624;DHT22;9441;51.420;7.036;2022-12-07T04:38:01;6.50;99.90
18624;DHT22;9441;51.420;7.036;2022-12-07T04:39:04;6.50;99.90
18624;DHT22;9441;51.420;7.036;2022-12-07T04:40:07;6.50;99.90
18624;DHT22;9441;51.420;7.036;2022-12-07T04:41:09;6.50;99.90
18624;DHT22;9441;51.420;7.036;2022-12-07T04:42:11;6.50;99.90
18624;DHT22;9441;51.420;7.036;2022-12-07T04:43:13;6.50;99.90
18624;DHT22;9441;51.420;7.036;2022-12-07T04:44:15;6.40;99.90
18624;DHT22;9441;51.420;7.036;2022-12-07T04:45:17;6.40;99.90
18624;DHT22;9441;51.420;7.036;2022-12-07T04:46:18;6.40;99.90
18624;DHT22;9441;51.420;7.036;2022-12-07T04:47:20;6.40;99.90
18624;DHT22;9441;51.420;7.036;2022-12-07T04:48:22;6.40;99.90
18624;DHT22;9441;51.420;7.036;2022-12-07T04:49:25;6.40;99.90
18624;DHT22;9441;51.420;7.036;2022-12-07T04:50:26;6.40;99.90
18624;DHT22;9441;51.420;7.036;2022-12-07T04:51:29;6.40;99.90
18624;DHT22;9441;51.420;7.036;2022-12-07T04:52:30;6.40;99.90
18624;DHT22;9441;51.420;7.036;2022-12-07T04:53:32;6.40;99.90
18624;DHT22;9441;51.420;7.036;2022-12-07T04:54:33;6.40;99.90
18624;DHT22;9441;51.420;7.036;2022-12-07T04:55:35;6.40;99.90
18624;DHT22;9441;51.420;7.036;2022-12-07T04:56:37;6.40;99.90
18624;DHT22;9441;51.420;7.036;2022-12-07T04:57:39;6.40;99.90
18624;DHT22;9441;51.420;7.036;2022-12-07T04:58:42;6.40;99.90
18624;DHT22;9441;51.420;7.036;2022-12-07T04:59:43;6.40;99.90
18624;DHT22;9441;51.420;7.036;2022-12-07T05:00:45;6.40;99.90
18624;DHT22;9441;51.420;7.036;2022-12-07T05:01:46;6.40;99.90
18624;DHT22;9441;51.420;7.036;2022-12-07T05:02:48;6.40;99.90
18624;DHT22;9441;51.420;7.036;2022-12-07T05:03:50;6.40;99.90
18624;DHT22;9441;51.420;7.036;2022-12-07T05:04:52;6.40;99.90
18624;DHT22;9441;51.420;7.036;2022-12-07T05:05:53;6.40;99.90
18624;DHT22;9441;51.420;7.036;2022-12-07T05:06:55;6.40;99.90
18624;DHT22;9441;51.420;7.036;2022-12-07T05:07:57;6.30;99.90
18624;DHT22;9441;51.420;7.036;2022-12-07T05:08:59;6.30;99.90
18624;DHT22;9441;51.420;7.036;2022-12-07T05:10:00;6.30;99.90
18624;DHT22;9441;51.420;7.036;2022-12-07T05:11:02;6.30;99.90
18624;DHT22;9441;51.420;7.036;2022-12-07T05:12:03;6.30;99.90
18624;DHT22;9441;51.420;7.036;2022-12-07T05:13:05;6.30;99.90
18624;DHT22;9441;51.420;7.036;2022-12-07T05:14:09;6.30;99.90
18624;DHT22;9441;51.420;7.036;2022-12-07T05:15:11;6.30;99.90
18624;DHT22;9441;51.420;7.036;2022-12-07T05:16:13;6.30;99.90
18624;DHT22;9441;51.420;7.036;2022-12-07T05:17:14;6.30;99.90
18624;DHT22;9441;51.420;7.036;2022-12-07T05:18:17;6.20;99.90
18624;DHT22;9441;51.420;7.036;2022-12-07T05:19:20;6.20;99.90
18624;DHT22;9441;51.420;7.036;2022-12-07T05:20:22;6.30;99.90
18624;DHT22;9441;51.420;7.036;2022-12-07T05:21:23;6.30;99.90
18624;DHT22;9441;51.420;7.036;2022-12-07T05:22:25;6.20;99.90
18624;DHT22;9441;51.420;7.036;2022-12-07T05:23:28;6.30;99.90
18624;DHT22;9441;51.420;7.036;2022-12-07T05:24:29;6.30;99.90
18624;DHT22;9441;51.420;7.036;2022-12-07T05:25:31;6.30;99.90
18624;DHT22;9441;51.420;7.036;2022-12-07T05:26:32;6.30;99.90
18624;DHT22;9441;51.420;7.036;2022-12-07T05:27:34;6.30;99.90
18624;DHT22;9441;51.420;7.036;2022-12-07T05:28:36;6.30;99.90
18624;DHT22;9441;51.420;7.036;2022-12-07T05:29:38;6.30;99.90
18624;DHT22;9441;51.420;7.036;2022-12-07T05:30:39;6.30;99.90
18624;DHT22;9441;51.420;7.036;2022-12-07T05:31:41;6.30;99.90
18624;DHT22;9441;51.420;7.036;2022-12-07T05:32:42;6.20;99.90
18624;DHT22;9441;51.420;7.036;2022-12-07T05:33:44;6.30;99.90
18624;DHT22;9441;51.420;7.036;2022-12-07T05:34:47;6.30;99.90
18624;DHT22;9441;51.420;7.036;2022-12-07T05:35:49;6.30;99.90
18624;DHT22;9441;51.420;7.036;2022-12-07T05:36:50;6.30;99.90
18624;DHT22;9441;51.420;7.036;2022-12-07T05:37:52;6.30;99.90
18624;DHT22;9441;51.420;7.036;2022-12-07T05:38:53;6.30;99.90
18624;DHT22;9441;51.420;7.036;2022-12-07T05:39:55;6.30;99.90
18624;DHT22;9441;51.420;7.036;2022-12-07T05:41:00;6.30;99.90
18624;DHT22;9441;51.420;7.036;2022-12-07T05:42:02;6.30;99.90
18624;DHT22;9441;51.420;7.036;2022-12-07T05:43:14;6.30;99.90
18624;DHT22;9441;51.420;7.036;2022-12-07T05:44:16;6.30;99.90
18624;DHT22;9441;51.420;7.036;2022-12-07T05:45:18;6.30;99.90
18624;DHT22;9441;51.420;7.036;2022-12-07T05:46:20;6.30;99.90
18624;DHT22;9441;51.420;7.036;2022-12-07T05:47:21;6.30;99.90
18624;DHT22;9441;51.420;7.036;2022-12-07T05:48:23;6.30;99.90
18624;DHT22;9441;51.420;7.036;2022-12-07T05:49:24;6.30;99.90
18624;DHT22;9441;51.420;7.036;2022-12-07T05:50:27;6.30;99.90
18624;DHT22;9441;51.420;7.036;2022-12-07T05:51:34;6.30;99.90
18624;DHT22;9441;51.420;7.036;2022-12-07T05:52:35;6.30;99.90
18624;DHT22;9441;51.420;7.036;2022-12-07T05:53:37;6.30;99.90
18624;DHT22;9441;51.420;7.036;2022-12-07T05:54:38;6.30;99.90
18624;DHT22;9441;51.420;7.036;2022-12-07T05:55:40;6.30;99.90
18624;DHT22;9441;51.420;7.036;2022-12-07T05:56:41;6.30;99.90
18624;DHT22;9441;51.420;7.036;2022-12-07T05:57:43;6.30;99.90
18624;DHT22;9441;51.420;7.036;2022-12-07T05:59:04;6.30;99.90
18624;DHT22;9441;51.420;7.036;2022-12-07T06:00:23;6.20;99.90
18624;DHT22;9441;51.420;7.036;2022-12-07T06:01:25;6.20;99.90
18624;DHT22;9441;51.420;7.036;2022-12-07T06:02:26;6.20;99.90
18624;DHT22;9441;51.420;7.036;2022-12-07T06:03:28;6.20;99.90
18624;DHT22;9441;51.420;7.036;2022-12-07T06:04:31;6.20;99.90
18624;DHT22;9441;51.420;7.036;2022-12-07T06:05:35;6.20;99.90
18624;DHT22;9441;51.420;7.036;2022-12-07T06:06:36;6.30;99.90
18624;DHT22;9441;51.420;7.036;2022-12-07T06:07:38;6.20;99.90
18624;DHT22;9441;51.420;7.036;2022-12-07T06:08:40;6.20;99.90
18624;DHT22;9441;51.420;7.036;2022-12-07T06:09:41;6.20;99.90
18624;DHT22;9441;51.420;7.036;2022-12-07T06:10:43;6.20;99.90
18624;DHT22;9441;51.420;7.036;2022-12-07T06:11:44;6.20;99.90
18624;DHT22;9441;51.420;7.036;2022-12-07T06:13:04;6.20;99.90
18624;DHT22;9441;51.420;7.036;2022-12-07T06:14:05;6.20;99.90
18624;DHT22;9441;51.420;7.036;2022-12-07T06:15:08;6.20;99.90
18624;DHT22;9441;51.420;7.036;2022-12-07T06:16:10;6.20;99.90
18624;DHT22;9441;51.420;7.036;2022-12-07T06:17:12;6.20;99.90
18624;DHT22;9441;51.420;7.036;2022-12-07T06:18:14;6.20;99.90
18624;DHT22;9441;51.420;7.036;2022-12-07T06:19:15;6.20;99.90
18624;DHT22;9441;51.420;7.036;2022-12-07T06:20:17;6.30;99.90
18624;DHT22;9441;51.420;7.036;2022-12-07T06:21:19;6.20;99.90
18624;DHT22;9441;51.420;7.036;2022-12-07T06:22:21;6.30;99.90
18624;DHT22;9441;51.420;7.036;2022-12-07T06:23:23;6.20;99.90
18624;DHT22;9441;51.420;7.036;2022-12-07T06:24:24;6.20;99.90
18624;DHT22;9441;51.420;7.036;2022-12-07T06:25:26;6.20;99.90
18624;DHT22;9441;51.420;7.036;2022-12-07T06:26:27;6.20;99.90
18624;DHT22;9441;51.420;7.036;2022-12-07T06:27:29;6.20;99.90
18624;DHT22;9441;51.420;7.036;2022-12-07T06:28:33;6.20;99.90
18624;DHT22;9441;51.420;7.036;2022-12-07T06:29:34;6.20;99.90
18624;DHT22;9441;51.420;7.036;2022-12-07T06:30:36;6.20;99.90
18624;DHT22;9441;51.420;7.036;2022-12-07T06:31:37;6.10;99.90
18624;DHT22;9441;51.420;7.036;2022-12-07T06:32:40;6.10;99.90
18624;DHT22;9441;51.420;7.036;2022-12-07T06:33:42;6.10;99.90
18624;DHT22;9441;51.420;7.036;2022-12-07T06:34:43;6.10;99.90
18624;DHT22;9441;51.420;7.036;2022-12-07T06:35:45;6.20;99.90
18624;DHT22;9441;51.420;7.036;2022-12-07T06:36:48;6.30;99.90
18624;DHT22;9441;51.420;7.036;2022-12-07T06:37:52;6.20;99.90
18624;DHT22;9441;51.420;7.036;2022-12-07T06:38:54;6.20;99.90
18624;DHT22;9441;51.420;7.036;2022-12-07T06:39:55;6.20;99.90
18624;DHT22;9441;51.420;7.036;2022-12-07T06:40:57;6.20;99.90
18624;DHT22;9441;51.420;7.036;2022-12-07T06:41:58;6.20;99.90
18624;DHT22;9441;51.420;7.036;2022-12-07T06:43:00;6.10;99.90
18624;DHT22;9441;51.420;7.036;2022-12-07T06:44:02;6.10;99.90
18624;DHT22;9441;51.420;7.036;2022-12-07T06:45:04;6.10;99.90
18624;DHT22;9441;51.420;7.036;2022-12-07T06:46:06;6.10;99.90
18624;DHT22;9441;51.420;7.036;2022-12-07T06:47:09;6.10;99.90
18624;DHT22;9441;51.420;7.036;2022-12-07T06:48:12;6.10;99.90
18624;DHT22;9441;51.420;7.036;2022-12-07T06:49:13;6.10;99.90
18624;DHT22;9441;51.420;7.036;2022-12-07T06:50:15;6.10;99.90
18624;DHT22;9441;51.420;7.036;2022-12-07T06:51:16;6.10;99.90
18624;DHT22;9441;51.420;7.036;2022-12-07T06:52:19;6.10;99.90
18624;DHT22;9441;51.420;7.036;2022-12-07T06:53:21;6.10;99.90
18624;DHT22;9441;51.420;7.036;2022-12-07T06:54:22;6.00;99.90
18624;DHT22;9441;51.420;7.036;2022-12-07T06:55:24;6.00;99.90
18624;DHT22;9441;51.420;7.036;2022-12-07T06:56:25;6.10;99.90
18624;DHT22;9441;51.420;7.036;2022-12-07T06:57:27;6.00;99.90
18624;DHT22;9441;51.420;7.036;2022-12-07T06:58:28;6.10;99.90